Station: Mcarthur River Mine

  Atmospheric Gas Attenuation - ITU Rec 676-11   --------------- db/100km ---------------
Date Time Temp RH % AH g/m3 Dew Point Wind Direction Speed kph Gust kph Barometer mB Rainfall Since 9am 24GHz 47GHz 76GHz 122GHz 134GHz 241GHz
07 07:40 18.8 56 9.02 9.8 6 7 1013.7 0 20.2 25.1 39.0 102.4 97.6 336.2
07 07:30 18.4 57 8.96 9.7 0 4 1013.6 0 20.1 25.2 39.0 102.3 97.3 335.2
07 07:20 17.8 58 8.8 9.4 0 2 1013.5 0 19.8 25.1 38.6 101.4 96.0 330.7
07 07:10 17.8 62 9.41 10.4 0 0 1013.3 0 21.1 26.0 41.0 107.7 103.8 357.8
07 07:00 18 59 9.06 9.9 2 7 1013.2 0 20.4 25.4 39.5 103.8 99.0 341.2
07 06:50 18.2 56 8.7 9.3 7 9 1013.1 0 19.6 24.8 38.0 99.8 94.2 324.5
07 06:40 18.5 62 9.81 11.1 9 9 1012.9 0 21.9 26.4 42.2 110.8 107.9 372.5
07 06:30 18.6 65 10.34 11.9 6 9 1012.6 0 23.0 27.2 44.2 116.3 114.7 396.1
07 06:20 18.8 67 10.79 12.5 6 6 1012.5 0 24.0 27.9 45.9 120.8 120.3 415.8
07 06:10 19.3 70 11.61 13.7 6 6 1012.5 0 25.7 29.1 48.9 128.9 130.5 451.5
07 06:00 19.6 72 12.15 14.4 6 7 1012.3 0 26.8 29.9 51.0 134.4 137.3 475.4
07 05:50 20 75 12.96 15.4 7 7 1012.3 0 28.5 31.1 54.2 142.8 147.8 512.1
07 05:40 19.4 83 13.85 16.4 9 9 1012.2 0 30.5 32.9 58.5 154.3 161.7 560.5
07 05:30 19.8 87 14.86 17.6 7 9 1012 0 32.6 34.6 62.7 165.5 175.7 609.1
07 05:20 19.5 91 15.27 18 9 9 1012.1 0 33.5 35.5 64.8 171.2 182.5 633.0
07 05:10 18.4 88 13.84 16.4 0 0 1012 0 30.5 33.3 59.2 156.2 163.7 567.3
07 04:50 18.7 88 14.09 16.7 0 0 1011.8 0 31.0 33.6 60.1 158.5 166.7 577.8
07 04:40 18.9 86 13.93 16.5 0 0 1011.7 0 30.7 33.2 59.2 156.2 163.9 568.0
07 04:30 19 87 14.18 16.8 0 0 1011.6 0 31.2 33.6 60.2 158.9 167.4 580.1
07 04:20 19.3 87 14.43 17.1 0 0 1011.5 0 31.7 34.0 61.1 161.3 170.4 590.6
07 04:10 19.5 87 14.6 17.3 6 6 1011.4 0 32.1 34.2 61.7 162.9 172.4 597.8
07 04:00 19.8 89 15.2 17.9 0 0 1011.2 0 33.3 35.2 64.2 169.5 180.6 626.4
07 03:50 19.9 86 14.77 17.5 0 0 1011.2 0 32.4 34.3 62.1 164.1 174.0 603.3
07 03:40 20.1 85 14.77 17.5 4 6 1011.2 0 32.4 34.3 62.0 163.7 173.5 601.7
07 03:30 20.2 83 14.51 17.2 4 9 1011 0 31.8 33.7 60.7 160.3 169.5 587.5
07 03:20 20.9 84 15.3 18.1 6 6 1011 0 33.5 34.9 63.7 168.3 179.5 622.5
07 03:10 21.1 83 15.29 18.1 7 9 1011 0 33.4 34.8 63.5 167.7 178.9 620.4
07 03:00 21.3 84 15.66 18.5 6 9 1010.9 0 34.2 35.4 65.0 171.7 183.8 637.8
07 02:50 21.3 82 15.28 18.1 6 6 1011 0 33.4 34.7 63.3 167.2 178.2 618.2
07 02:40 21.3 81 15.1 17.9 6 7 1011.1 0 33.0 34.4 62.5 165.0 175.6 609.1
07 02:30 21.7 81 15.45 18.3 6 9 1011 0 33.7 34.8 63.7 168.3 179.8 623.7
07 02:20 21.7 80 15.26 18.1 7 9 1011.1 0 33.3 34.5 62.9 166.1 177.0 614.0
07 02:10 21.7 80 15.26 18.1 6 7 1011.2 0 33.3 34.5 62.9 166.1 177.0 614.1
07 02:00 21.5 80 15.08 17.9 7 11 1011.2 0 32.9 34.2 62.2 164.4 174.9 606.5
07 01:50 21.3 81 15.1 17.9 0 0 1011.4 0 33.0 34.4 62.5 165.1 175.6 609.2
07 01:40 21.5 82 15.46 18.3 0 0 1011.5 0 33.8 34.9 64.0 168.9 180.5 626.1
07 01:30 21.2 79 14.64 17.4 4 7 1011.4 0 32.0 33.6 60.5 159.8 169.2 586.6
07 01:20 21.3 79 14.72 17.5 0 0 1011.5 0 32.2 33.7 60.8 160.6 170.1 589.9
07 01:10 21.4 78 14.62 17.4 0 0 1011.6 0 32.0 33.5 60.3 159.2 168.5 584.2
07 01:00 21.6 77 14.6 17.4 0 0 1011.5 0 31.9 33.4 60.0 158.5 167.7 581.6
07 00:50 21.8 76 14.58 17.4 0 0 1011.7 0 31.9 33.3 59.8 157.9 167.0 579.2
07 00:40 22.2 73 14.33 17.1 0 0 1011.7 0 31.3 32.7 58.4 154.2 162.6 563.8
07 00:30 22.7 72 14.55 17.4 0 0 1011.5 0 31.7 32.9 59.0 155.7 164.6 570.9
07 00:20 22.9 72 14.71 17.6 0 0 1011.7 0 32.0 33.1 59.5 157.2 166.4 577.4
07 00:10 23 72 14.8 17.7 4 6 1011.7 0 32.2 33.2 59.8 158.0 167.5 581.1
07 00:00 23.2 71 14.76 17.7 6 7 1011.6 0 32.1 33.0 59.5 157.1 166.5 577.5
06 23:50 23.6 70 14.89 17.8 6 6 1011.8 0 32.4 33.1 59.8 157.8 167.5 581.0
06 23:40 23.8 69 14.84 17.8 6 7 1011.8 0 32.2 33.0 59.4 156.9 166.3 577.1
06 23:30 24 68 14.79 17.7 7 9 1011.6 0 32.1 32.8 59.0 155.9 165.2 573.1
06 23:20 24.3 66 14.6 17.5 7 9 1011.6 0 31.7 32.3 58.0 153.1 161.9 561.6
06 23:10 24.6 65 14.63 17.6 7 7 1011.7 0 31.7 32.3 57.9 152.9 161.7 561.0
06 23:00 24.7 65 14.71 17.7 7 13 1011.6 0 31.9 32.4 58.2 153.6 162.6 564.0
06 22:50 24.8 63 14.34 17.3 6 7 1011.6 0 31.1 31.7 56.5 149.2 157.3 545.6
06 22:40 25.1 63 14.58 17.6 7 9 1011.6 0 31.6 32.0 57.3 151.3 159.9 554.9
06 22:30 25.4 62 14.6 17.6 11 15 1011.3 0 31.6 31.9 57.2 150.9 159.5 553.6
06 22:20 25.5 62 14.68 17.7 13 17 1011.2 0 31.8 32.0 57.4 151.6 160.4 556.7
06 22:10 25.7 61 14.6 17.6 7 9 1011.2 0 31.6 31.8 56.9 150.3 158.9 551.5
06 22:00 26 60 14.61 17.6 7 13 1011.2 0 31.6 31.7 56.8 149.9 158.4 549.8
06 21:50 26 60 14.61 17.6 7 9 1011.2 0 31.6 31.7 56.8 149.9 158.4 549.8
06 21:40 26.5 58 14.52 17.8 6 7 1011.1 0 31.4 31.4 56.0 147.9 156.2 542.1
06 21:30 26.7 58 14.68 17.8 9 13 1010.7 0 31.7 31.6 56.5 149.2 157.9 548.0
06 21:20 26.9 57 14.59 17.9 7 9 1010.5 0 31.5 31.3 56.0 147.9 156.2 542.3
06 21:10 26.9 57 14.59 17.9 11 13 1010.3 0 31.5 31.3 56.0 147.8 156.2 542.2
06 21:00 26.7 56 14.18 17.2 7 13 1010 0 30.6 30.7 54.4 143.7 151.1 524.5
06 20:50 26.9 56 14.33 17.4 7 9 1010 0 30.9 30.9 54.9 145.0 152.7 530.1
06 20:40 27 55 14.16 17.2 11 11 1009.9 0 30.6 30.6 54.2 143.0 150.3 521.5
06 20:30 27 55 14.16 17.2 9 11 1009.6 0 30.6 30.6 54.1 142.9 150.3 521.4
06 20:20 27.2 54 14.05 17.1 9 11 1009.7 0 30.3 30.3 53.6 141.4 148.4 515.1
06 20:10 27.4 53 13.95 17 9 9 1009.6 0 30.1 30.1 53.0 140.0 146.7 509.2
06 20:00 27.4 52 13.68 16.7 7 13 1009.2 0 29.5 29.6 51.9 137.1 143.2 496.9
06 19:50 27.5 48 12.7 15.8 7 7 1009.2 0 27.5 28.1 48.1 126.8 130.6 452.8
06 19:40 27.1 44 11.39 13.8 9 11 1009 0 24.8 26.2 43.4 114.3 115.1 398.7
06 19:30 27.7 43 11.5 14 6 7 1008.6 0 25.0 26.2 43.5 114.5 115.5 400.2
06 19:20 28 43 11.69 14.3 7 7 1008.7 0 25.4 26.4 44.0 115.9 117.4 406.7
06 19:10 28.2 42 11.55 14.1 0 0 1008.5 0 25.1 26.1 43.4 114.3 115.4 399.7
06 19:00 28.6 41 11.52 14.1 6 7 1008.1 0 25.0 25.9 43.0 113.4 114.4 396.4
06 18:50 28.8 40 11.37 13.9 7 7 1008.2 0 24.6 25.7 42.4 111.7 112.4 389.3
06 18:40 29.2 38 11.04 13.4 4 6 1008.1 0 23.9 25.1 41.0 108.0 108.0 373.8
06 18:30 29.6 37 10.98 13.4 6 7 1007.8 0 23.8 24.9 40.6 106.9 106.7 369.5
06 18:20 30 36 10.92 13.3 6 6 1008 0 23.6 24.7 40.2 105.8 105.5 365.3
06 18:10 30.4 34 10.54 12.8 6 6 1007.9 0 22.8 24.0 38.7 101.8 100.7 348.5
06 18:00 30.7 33 10.39 12.6 9 11 1007.6 0 22.5 23.7 38.0 100.0 98.6 341.3
06 17:50 31.1 32 10.3 12.5 9 11 1007.7 0 22.3 23.5 37.5 98.7 97.1 336.1
06 17:40 31.4 30 9.81 12.2 11 13 1007.6 0 21.3 22.8 35.8 94.0 91.4 316.2
06 17:30 31.8 31 10.36 12.6 13 20 1007.3 0 22.4 23.4 37.4 98.4 96.9 335.5
06 17:20 31.9 30 10.08 12.2 17 19 1007.4 0 21.8 23.0 36.4 95.8 93.8 324.4
06 17:10 32 31 10.47 12.8 17 19 1007.2 0 22.6 23.5 37.7 99.1 97.9 338.9
06 17:00 32.1 29 9.85 12.3 17 26 1006.9 0 21.3 22.6 35.6 93.5 91.0 314.8
06 16:50 32.1 29 9.85 11.8 20 24 1007.1 0 21.3 22.7 35.6 93.6 91.0 314.9
06 16:40 32.2 31 10.58 12.9 17 22 1007.1 0 22.8 23.6 37.9 99.9 98.8 342.2
06 16:30 32.7 28 9.81 12.3 11 20 1006.8 0 21.2 22.4 35.2 92.5 89.9 311.0
06 16:20 32.1 29 9.85 12.3 13 19 1007 0 21.3 22.6 35.6 93.5 91.0 314.8
06 16:10 32 31 10.47 12.8 13 15 1007 0 22.6 23.5 37.7 99.1 97.9 338.8
06 16:00 32 31 10.47 12.8 13 22 1006.9 0 22.6 23.5 37.7 99.1 97.9 338.8
06 15:50 31.8 31 10.36 12.6 17 20 1007.1 0 22.4 23.4 37.4 98.4 96.9 335.4
06 15:40 32.3 30 10.29 12.5 17 22 1007 0 22.2 23.2 36.9 97.2 95.5 330.7
06 15:30 32.1 29 9.85 12.3 19 28 1006.9 0 21.3 22.6 35.6 93.5 91.0 314.8
06 15:20 32.8 29 10.22 12.4 19 26 1007.1 0 22.0 23.0 36.5 96.0 94.2 326.1
06 15:10 32.6 30 10.46 12.8 13 17 1007.2 0 22.6 23.3 37.4 98.3 97.0 336.0
06 15:00 32.2 31 10.58 12.9 17 26 1007 0 22.8 23.6 37.9 99.9 98.8 342.2

Last Refresh: 07-Aug-2020 07:48:15

Most of the information presented on this site is sourced from the Bureau of Meteorology.  Copyright in all material sourced from the Bureau of Meteorology resides with the Commonwealth of Australia.